createdAt,value
2023-04-18T00:02:54.300Z,100704.44
2023-04-18T00:07:53.536Z,100703.50
2023-04-18T00:12:52.488Z,100713.09
2023-04-18T00:17:51.381Z,100710.00
2023-04-18T00:22:53.231Z,100703.66
2023-04-18T00:27:52.050Z,100703.25
2023-04-18T00:32:51.020Z,100695.88
2023-04-18T00:37:52.009Z,100694.22
2023-04-18T00:42:50.811Z,100685.09
2023-04-18T00:47:49.740Z,100686.31
2023-04-18T00:52:49.106Z,100681.69
2023-04-18T00:57:49.174Z,100680.38
2023-04-18T01:02:50.027Z,100668.06
2023-04-18T01:07:50.933Z,100670.38
2023-04-18T01:12:51.088Z,100668.31
2023-04-18T01:17:49.975Z,100682.16
2023-04-18T01:22:48.934Z,100675.38
2023-04-18T01:27:49.076Z,100667.31
2023-04-18T01:32:47.898Z,100671.09
2023-04-18T01:37:46.834Z,100658.72
2023-04-18T01:42:45.656Z,100655.41
2023-04-18T01:47:46.164Z,100649.22
2023-04-18T01:52:45.140Z,100659.59
2023-04-18T01:57:44.218Z,100649.13
2023-04-18T02:02:43.354Z,100658.56
2023-04-18T02:07:43.904Z,100664.75
2023-04-18T02:12:43.213Z,100649.13
2023-04-18T02:17:42.503Z,100647.59
2023-04-18T02:22:41.356Z,100647.16
2023-04-18T02:27:41.596Z,100646.66
2023-04-18T02:32:40.473Z,100653.00
2023-04-18T02:37:39.300Z,100643.28
2023-04-18T02:42:38.140Z,100650.69
2023-04-18T02:47:51.293Z,100653.25
2023-04-18T02:52:54.003Z,100651.56
2023-04-18T02:57:56.046Z,100646.34
2023-04-18T03:03:31.486Z,100647.84
2023-04-18T03:08:50.136Z,100658.81
2023-04-18T03:13:49.371Z,100667.31
2023-04-18T03:18:50.320Z,100675.28
2023-04-18T03:23:50.311Z,100671.03
2023-04-18T03:28:49.342Z,100671.25
2023-04-18T03:33:51.711Z,100674.13
2023-04-18T03:38:52.008Z,100673.03
2023-04-18T03:43:51.121Z,100667.38
2023-04-18T03:48:51.330Z,100691.25
2023-04-18T03:53:50.380Z,100691.81
2023-04-18T03:58:50.201Z,100696.13
2023-04-18T04:03:52.116Z,100704.88
2023-04-18T04:08:52.001Z,100707.00
2023-04-18T04:13:55.381Z,100711.16
2023-04-18T04:19:00.877Z,100716.50
2023-04-18T04:24:08.617Z,100711.41
2023-04-18T04:29:15.356Z,100717.19
2023-04-18T04:34:17.835Z,100723.78
2023-04-18T04:39:18.120Z,100726.31
2023-04-18T04:44:29.723Z,100727.63
2023-04-18T04:49:30.216Z,100723.75
2023-04-18T04:54:29.190Z,100727.47
2023-04-18T04:59:28.609Z,100730.91
2023-04-18T05:04:27.730Z,100733.19
2023-04-18T05:09:28.318Z,100733.84
2023-04-18T05:14:27.801Z,100735.44
2023-04-18T05:20:04.070Z,100742.50
2023-04-18T05:25:04.478Z,100745.84
2023-04-18T05:30:03.245Z,100737.91
2023-04-18T05:35:02.211Z,100742.59
2023-04-18T05:40:01.295Z,100752.09
2023-04-18T05:45:01.637Z,100755.31
2023-04-18T05:50:00.490Z,100753.59
2023-04-18T05:54:59.519Z,100756.31
2023-04-18T05:59:58.411Z,100756.91
2023-04-18T06:04:59.693Z,100752.22
2023-04-18T06:09:58.958Z,100758.88
2023-04-18T06:14:57.866Z,100752.09
2023-04-18T06:19:58.123Z,100756.63
2023-04-18T06:24:59.850Z,100764.56
2023-04-18T06:29:58.885Z,100752.16
2023-04-18T06:34:59.209Z,100758.56
2023-04-18T06:39:59.192Z,100753.03
2023-04-18T06:44:58.202Z,100762.53
2023-04-18T06:49:58.501Z,100758.38
2023-04-18T06:55:03.232Z,100767.25
2023-04-18T07:00:01.922Z,100767.38
2023-04-18T07:05:02.214Z,100757.19
2023-04-18T07:10:01.114Z,100770.25
2023-04-18T07:15:00.057Z,100769.16
2023-04-18T07:20:01.588Z,100773.03
2023-04-18T07:25:00.759Z,100782.44
2023-04-18T07:29:59.568Z,100784.28
2023-04-18T07:34:59.295Z,100784.72
2023-04-18T07:40:00.115Z,100781.69
2023-04-18T07:44:59.794Z,100786.66
2023-04-18T07:49:58.450Z,100784.19
2023-04-18T07:54:57.424Z,100780.09
2023-04-18T07:59:57.746Z,100793.03
2023-04-18T08:04:56.800Z,100796.22
2023-04-18T08:09:57.180Z,100795.19
2023-04-18T08:14:57.771Z,100790.59
2023-04-18T08:19:57.147Z,100785.09
2023-04-18T08:25:05.105Z,100794.88
2023-04-18T08:30:12.183Z,100785.41
2023-04-18T08:35:14.491Z,100786.88
2023-04-18T08:40:13.883Z,100784.09
2023-04-18T08:45:15.204Z,100793.94
2023-04-18T08:50:14.093Z,100783.84
2023-04-18T08:55:12.904Z,100773.47
2023-04-18T09:00:14.605Z,100782.13
2023-04-18T09:05:15.307Z,100787.78
2023-04-18T09:10:15.675Z,100792.53
2023-04-18T09:15:18.988Z,100791.94
2023-04-18T09:20:30.730Z,100788.31
2023-04-18T09:25:34.612Z,100777.41
2023-04-18T09:30:38.273Z,100789.16
2023-04-18T09:35:40.903Z,100788.00
2023-04-18T09:40:46.131Z,100790.00
2023-04-18T09:45:48.856Z,100777.91
2023-04-18T09:50:51.068Z,100780.19
2023-04-18T09:55:53.261Z,100767.16
2023-04-18T10:00:55.786Z,100773.31
2023-04-18T10:05:57.678Z,100771.81
2023-04-18T10:10:58.995Z,100763.97
2023-04-18T10:16:00.189Z,100774.63
2023-04-18T10:21:04.571Z,100770.16
2023-04-18T10:26:04.518Z,100769.44
2023-04-18T10:31:05.837Z,100767.34
2023-04-18T10:36:16.303Z,100771.78
2023-04-18T10:41:27.204Z,100770.66
2023-04-18T10:46:32.604Z,100774.09
2023-04-18T10:51:32.061Z,100767.59
2023-04-18T10:56:31.109Z,100766.19
2023-04-18T11:01:33.558Z,100763.16
2023-04-18T11:06:32.526Z,100759.66
2023-04-18T11:11:31.577Z,100757.91
2023-04-18T11:16:33.456Z,100763.34
2023-04-18T11:21:32.330Z,100762.13
2023-04-18T11:26:31.343Z,100758.53
2023-04-18T11:31:33.275Z,100752.28
2023-04-18T11:36:35.287Z,100765.28
2023-04-18T11:41:34.239Z,100763.50
2023-04-18T11:46:39.552Z,100762.53
2023-04-18T11:51:39.997Z,100763.84
2023-04-18T11:56:48.623Z,100759.16
2023-04-18T12:01:48.321Z,100760.59
2023-04-18T12:06:56.119Z,100767.13
2023-04-18T12:12:06.705Z,100766.00
2023-04-18T12:17:10.483Z,100748.97
2023-04-18T12:22:30.669Z,100749.81
2023-04-18T12:27:56.225Z,100751.50
2023-04-18T12:33:00.572Z,100748.03
2023-04-18T12:38:18.613Z,100747.19
2023-04-18T12:43:47.830Z,100753.72
2023-04-18T12:48:59.536Z,100751.78
2023-04-18T12:54:00.733Z,100742.47
2023-04-18T12:59:01.030Z,100740.06
2023-04-18T13:04:11.940Z,100743.34
2023-04-18T13:09:13.821Z,100733.19
2023-04-18T13:14:21.618Z,100734.84
2023-04-18T13:19:24.952Z,100734.34
2023-04-18T13:24:44.516Z,100731.19
2023-04-18T13:29:47.581Z,100728.66
2023-04-18T13:34:50.576Z,100725.03
2023-04-18T13:39:51.795Z,100720.31
2023-04-18T13:44:50.857Z,100724.31
2023-04-18T13:49:50.494Z,100715.50
2023-04-18T13:54:54.437Z,100702.81
2023-04-18T14:00:00.387Z,100700.50
2023-04-18T14:05:07.011Z,100697.63
2023-04-18T14:10:59.343Z,100687.84
2023-04-18T14:16:01.174Z,100691.06
2023-04-18T14:21:12.270Z,100691.69
2023-04-18T14:26:14.065Z,100689.09
2023-04-18T14:31:14.101Z,100682.50
2023-04-18T14:36:15.014Z,100678.56
2023-04-18T14:41:15.478Z,100680.47
2023-04-18T14:46:16.495Z,100682.41
2023-04-18T14:51:16.340Z,100681.09
2023-04-18T14:56:21.267Z,100680.88
2023-04-18T15:01:20.197Z,100676.81
2023-04-18T15:06:19.650Z,100672.03
2023-04-18T15:11:20.550Z,100667.59
2023-04-18T15:16:19.873Z,100663.34
2023-04-18T15:21:18.898Z,100660.59
2023-04-18T15:26:19.884Z,100659.97
2023-04-18T15:31:19.114Z,100657.78
2023-04-18T15:36:18.930Z,100652.47
2023-04-18T15:41:19.383Z,100649.69
2023-04-18T15:46:18.523Z,100644.66
2023-04-18T15:51:17.618Z,100640.72
2023-04-18T15:56:18.549Z,100639.56
2023-04-18T16:01:19.614Z,100643.25
2023-04-18T16:06:23.536Z,100628.66
2023-04-18T16:11:26.245Z,100639.50
2023-04-18T16:16:28.584Z,100643.97
2023-04-18T16:21:28.366Z,100646.16
2023-04-18T16:26:28.857Z,100653.50
2023-04-18T16:31:29.233Z,100648.19
2023-04-18T16:36:30.157Z,100649.06
2023-04-18T16:41:29.126Z,100647.72
2023-04-18T16:46:32.516Z,100653.16
2023-04-18T16:51:32.857Z,100663.16
2023-04-18T16:56:32.082Z,100672.69
2023-04-18T17:01:34.053Z,100668.97
2023-04-18T17:06:33.480Z,100667.16
2023-04-18T17:11:35.400Z,100665.34
2023-04-18T17:16:44.707Z,100673.53
2023-04-18T17:21:45.626Z,100678.72
2023-04-18T17:26:44.911Z,100678.00
2023-04-18T17:31:45.906Z,100679.16
2023-04-18T17:36:45.140Z,100689.41
2023-04-18T17:41:47.316Z,100686.34
2023-04-18T17:46:50.004Z,100684.19
2023-04-18T17:51:49.594Z,100685.09
2023-04-18T17:56:53.310Z,100684.19
2023-04-18T18:02:02.520Z,100681.13
2023-04-18T18:07:08.946Z,100687.31
2023-04-18T18:12:08.253Z,100689.75
2023-04-18T18:17:09.426Z,100695.50
2023-04-18T18:22:08.704Z,100702.16
2023-04-18T18:27:08.471Z,100700.91
2023-04-18T18:32:09.264Z,100703.88
2023-04-18T18:37:08.548Z,100714.69
2023-04-18T18:42:08.407Z,100714.47
2023-04-18T18:47:09.080Z,100725.16
2023-04-18T18:52:08.088Z,100719.13
2023-04-18T18:57:07.168Z,100720.63
2023-04-18T19:02:06.212Z,100727.28
2023-04-18T19:07:07.449Z,100723.47
2023-04-18T19:12:07.176Z,100731.19
2023-04-18T19:17:06.147Z,100725.06
2023-04-18T19:22:07.010Z,100723.13
2023-04-18T19:27:05.938Z,100718.47
2023-04-18T19:32:05.200Z,100711.41
2023-04-18T19:37:04.612Z,100710.53
2023-04-18T19:42:05.814Z,100719.31
2023-04-18T19:47:05.240Z,100717.72
2023-04-18T19:52:04.256Z,100721.56
2023-04-18T19:57:04.779Z,100713.78
2023-04-18T20:02:06.046Z,100707.19
2023-04-18T20:07:05.982Z,100711.22
2023-04-18T20:12:06.718Z,100710.19
2023-04-18T20:17:06.022Z,100698.41
2023-04-18T20:22:05.254Z,100706.13
2023-04-18T20:27:06.380Z,100696.63
2023-04-18T20:32:05.905Z,100686.84
2023-04-18T20:37:07.507Z,100692.88
2023-04-18T20:42:08.172Z,100685.97
2023-04-18T20:47:07.231Z,100687.00
2023-04-18T20:52:09.653Z,100680.00
2023-04-18T20:57:10.109Z,100683.44
2023-04-18T21:02:10.101Z,100684.22
2023-04-18T21:07:09.565Z,100682.78
2023-04-18T21:12:09.995Z,100676.22
2023-04-18T21:17:09.882Z,100667.22
2023-04-18T21:22:08.875Z,100670.59
2023-04-18T21:27:10.591Z,100665.16
2023-04-18T21:32:09.684Z,100663.56
2023-04-18T21:37:08.539Z,100670.47
2023-04-18T21:42:07.543Z,100675.84
2023-04-18T21:47:07.908Z,100662.56
2023-04-18T21:52:08.537Z,100666.91
2023-04-18T21:57:07.487Z,100666.59
2023-04-18T22:02:09.015Z,100662.63
2023-04-18T22:07:09.030Z,100661.63
2023-04-18T22:12:08.767Z,100660.56
2023-04-18T22:17:09.380Z,100658.66
2023-04-18T22:22:08.252Z,100649.91
2023-04-18T22:27:07.253Z,100657.66
2023-04-18T22:32:06.843Z,100648.22
2023-04-18T22:37:07.903Z,100646.78
2023-04-18T22:42:06.892Z,100646.88
2023-04-18T22:47:06.430Z,100642.75
2023-04-18T22:52:08.406Z,100635.38
2023-04-18T22:57:07.499Z,100632.47
2023-04-18T23:02:06.930Z,100632.09
2023-04-18T23:07:09.191Z,100628.97
2023-04-18T23:12:09.795Z,100631.22
2023-04-18T23:17:09.219Z,100630.00
2023-04-18T23:22:10.067Z,100620.34
2023-04-18T23:27:09.397Z,100615.88
2023-04-18T23:32:08.694Z,100624.59
2023-04-18T23:37:08.335Z,100619.94
2023-04-18T23:42:09.266Z,100624.69
2023-04-18T23:47:08.696Z,100619.91
2023-04-18T23:52:08.667Z,100618.38
2023-04-18T23:57:09.590Z,100612.41
